createdAt,value
2023-05-05T00:00:04.683Z,985.00
2023-05-05T00:01:04.645Z,983.00
2023-05-05T00:02:04.708Z,982.00
2023-05-05T00:03:04.796Z,979.00
2023-05-05T00:04:04.729Z,982.00
2023-05-05T00:05:04.733Z,981.00
2023-05-05T00:06:04.727Z,981.00
2023-05-05T00:07:04.744Z,981.00
2023-05-05T00:08:04.748Z,983.00
2023-05-05T00:09:04.760Z,983.00
2023-05-05T00:10:04.872Z,979.00
2023-05-05T00:11:04.797Z,977.00
2023-05-05T00:12:04.802Z,974.00
2023-05-05T00:13:04.860Z,971.00
2023-05-05T00:14:04.842Z,971.00
2023-05-05T00:15:04.832Z,969.00
2023-05-05T00:16:04.853Z,967.00
2023-05-05T00:17:04.908Z,962.00
2023-05-05T00:18:04.941Z,959.00
2023-05-05T00:19:04.890Z,958.00
2023-05-05T00:20:05.041Z,959.00
2023-05-05T00:21:04.925Z,959.00
2023-05-05T00:22:04.940Z,962.00
2023-05-05T00:23:04.962Z,961.00
2023-05-05T00:24:04.969Z,959.00
2023-05-05T00:25:04.987Z,963.00
2023-05-05T00:26:05.003Z,963.00
2023-05-05T00:27:05.036Z,962.00
2023-05-05T00:28:05.043Z,959.00
2023-05-05T00:29:05.068Z,957.00
2023-05-05T00:30:05.125Z,959.00
2023-05-05T00:31:05.182Z,958.00
2023-05-05T00:32:05.117Z,956.00
2023-05-05T00:33:05.126Z,958.00
2023-05-05T00:34:05.145Z,959.00
2023-05-05T00:35:05.162Z,956.00
2023-05-05T00:36:05.183Z,957.00
2023-05-05T00:37:05.193Z,957.00
2023-05-05T00:38:05.256Z,957.00
2023-05-05T00:39:05.220Z,957.00
2023-05-05T00:40:05.394Z,956.00
2023-05-05T00:41:05.275Z,953.00
2023-05-05T00:42:05.292Z,951.00
2023-05-05T00:43:05.350Z,951.00
2023-05-05T00:44:05.360Z,952.00
2023-05-05T00:45:05.322Z,953.00
2023-05-05T00:46:05.382Z,955.00
2023-05-05T00:47:05.354Z,953.00
2023-05-05T00:48:05.450Z,950.00
2023-05-05T00:49:05.419Z,950.00
2023-05-05T00:50:05.537Z,949.00
2023-05-05T00:51:05.409Z,949.00
2023-05-05T00:52:05.438Z,945.00
2023-05-05T00:53:05.438Z,945.00
2023-05-05T00:54:05.461Z,943.00
2023-05-05T00:55:05.476Z,946.00
2023-05-05T00:56:05.493Z,943.00
2023-05-05T00:57:05.526Z,944.00
2023-05-05T00:58:05.552Z,939.00
2023-05-05T00:59:05.566Z,937.00
2023-05-05T01:00:05.705Z,936.00
2023-05-05T01:01:05.581Z,936.00
2023-05-05T01:02:05.657Z,935.00
2023-05-05T01:03:05.701Z,937.00
2023-05-05T01:04:05.671Z,935.00
2023-05-05T01:05:05.645Z,935.00
2023-05-05T01:06:05.679Z,935.00
2023-05-05T01:07:05.675Z,934.00
2023-05-05T01:08:05.698Z,932.00
2023-05-05T01:09:05.714Z,934.00
2023-05-05T01:10:18.858Z,933.00
2023-05-05T01:11:06.751Z,933.00
2023-05-05T01:12:05.744Z,935.00
2023-05-05T01:13:05.777Z,939.00
2023-05-05T01:14:05.760Z,939.00
2023-05-05T01:15:05.781Z,940.00
2023-05-05T01:16:05.825Z,937.00
2023-05-05T01:17:05.798Z,937.00
2023-05-05T01:18:05.865Z,936.00
2023-05-05T01:19:05.808Z,935.00
2023-05-05T01:20:05.940Z,937.00
2023-05-05T01:21:05.824Z,938.00
2023-05-05T01:22:05.852Z,938.00
2023-05-05T01:23:05.876Z,933.00
2023-05-05T01:24:05.878Z,932.00
2023-05-05T01:25:05.893Z,929.00
2023-05-05T01:26:05.907Z,930.00
2023-05-05T01:27:05.923Z,929.00
2023-05-05T01:28:05.939Z,930.00
2023-05-05T01:29:05.946Z,931.00
2023-05-05T01:30:06.120Z,930.00
2023-05-05T01:31:05.970Z,928.00
2023-05-05T01:32:05.982Z,928.00
2023-05-05T01:33:05.979Z,925.00
2023-05-05T01:34:05.991Z,923.00
2023-05-05T01:35:06.002Z,918.00
2023-05-05T01:36:06.008Z,918.00
2023-05-05T01:37:06.027Z,919.00
2023-05-05T01:38:06.042Z,920.00
2023-05-05T01:39:06.035Z,917.00
2023-05-05T01:40:06.231Z,916.00
2023-05-05T01:41:06.068Z,915.00
2023-05-05T01:42:06.072Z,914.00
2023-05-05T01:43:06.081Z,911.00
2023-05-05T01:44:06.102Z,908.00
2023-05-05T01:45:06.104Z,910.00
2023-05-05T01:46:06.146Z,910.00
2023-05-05T01:47:06.130Z,915.00
2023-05-05T01:48:06.179Z,917.00
2023-05-05T01:49:06.167Z,913.00
2023-05-05T01:50:06.383Z,913.00
2023-05-05T01:51:06.180Z,909.00
2023-05-05T01:52:06.188Z,910.00
2023-05-05T01:53:06.201Z,908.00
2023-05-05T01:54:06.211Z,911.00
2023-05-05T01:55:06.222Z,914.00
2023-05-05T01:56:06.241Z,913.00
2023-05-05T01:57:06.262Z,913.00
2023-05-05T01:58:06.272Z,909.00
2023-05-05T01:59:06.270Z,904.00
2023-05-05T02:00:06.380Z,904.00
2023-05-05T02:01:06.351Z,904.00
2023-05-05T02:02:07.187Z,901.00
2023-05-05T02:03:06.394Z,899.00
2023-05-05T02:04:06.350Z,900.00
2023-05-05T02:05:06.341Z,901.00
2023-05-05T02:06:06.359Z,898.00
2023-05-05T02:07:06.374Z,903.00
2023-05-05T02:08:06.381Z,904.00
2023-05-05T02:09:06.399Z,904.00
2023-05-05T02:10:06.694Z,903.00
2023-05-05T02:11:06.466Z,900.00
2023-05-05T02:12:06.455Z,899.00
2023-05-05T02:13:06.539Z,901.00
2023-05-05T02:14:06.435Z,903.00
2023-05-05T02:15:06.446Z,897.00
2023-05-05T02:16:06.483Z,900.00
2023-05-05T02:17:06.465Z,901.00
2023-05-05T02:18:06.620Z,895.00
2023-05-05T02:19:06.490Z,893.00
2023-05-05T02:20:06.694Z,889.00
2023-05-05T02:21:06.506Z,890.00
2023-05-05T02:22:06.534Z,889.00
2023-05-05T02:23:06.545Z,888.00
2023-05-05T02:24:06.563Z,891.00
2023-05-05T02:25:06.573Z,893.00
2023-05-05T02:26:06.598Z,896.00
2023-05-05T02:27:06.601Z,898.00
2023-05-05T02:28:06.614Z,900.00
2023-05-05T02:29:06.629Z,899.00
2023-05-05T02:30:06.867Z,898.00
2023-05-05T02:31:06.674Z,895.00
2023-05-05T02:32:06.655Z,894.00
2023-05-05T02:33:06.765Z,892.00
2023-05-05T02:34:06.696Z,891.00
2023-05-05T02:35:06.709Z,889.00
2023-05-05T02:36:06.728Z,888.00
2023-05-05T02:37:06.747Z,893.00
2023-05-05T02:38:06.768Z,897.00
2023-05-05T02:39:06.786Z,894.00
2023-05-05T02:40:07.114Z,894.00
2023-05-05T02:41:06.821Z,891.00
2023-05-05T02:42:06.827Z,892.00
2023-05-05T02:43:06.933Z,891.00
2023-05-05T02:44:06.884Z,888.00
2023-05-05T02:45:06.906Z,887.00
2023-05-05T02:46:06.934Z,887.00
2023-05-05T02:47:06.932Z,891.00
2023-05-05T02:48:06.962Z,890.00
2023-05-05T02:49:06.962Z,890.00
2023-05-05T02:50:07.167Z,888.00
2023-05-05T02:51:07.002Z,888.00
2023-05-05T02:52:07.038Z,888.00
2023-05-05T02:53:07.025Z,887.00
2023-05-05T02:54:07.058Z,885.00
2023-05-05T02:55:07.067Z,884.00
2023-05-05T02:56:07.071Z,880.00
2023-05-05T02:57:07.093Z,877.00
2023-05-05T02:58:07.092Z,878.00
2023-05-05T02:59:07.114Z,875.00
2023-05-05T03:00:07.321Z,876.00
2023-05-05T03:01:07.217Z,875.00
2023-05-05T03:02:07.152Z,874.00
2023-05-05T03:03:07.240Z,873.00
2023-05-05T03:04:07.182Z,872.00
2023-05-05T03:05:07.260Z,870.00
2023-05-05T03:06:07.212Z,868.00
2023-05-05T03:07:07.218Z,870.00
2023-05-05T03:08:07.246Z,866.00
2023-05-05T03:09:07.260Z,866.00
2023-05-05T03:10:07.446Z,867.00
2023-05-05T03:11:07.296Z,871.00
2023-05-05T03:12:07.319Z,867.00
2023-05-05T03:13:07.398Z,864.00
2023-05-05T03:14:07.342Z,862.00
2023-05-05T03:15:07.361Z,862.00
2023-05-05T03:16:07.421Z,862.00
2023-05-05T03:17:07.397Z,863.00
2023-05-05T03:18:07.467Z,861.00
2023-05-05T03:19:07.425Z,862.00
2023-05-05T03:20:07.648Z,860.00
2023-05-05T03:21:07.454Z,858.00
2023-05-05T03:22:07.469Z,849.00
2023-05-05T03:23:07.482Z,850.00
2023-05-05T03:24:07.507Z,854.00
2023-05-05T03:25:07.530Z,853.00
2023-05-05T03:26:07.546Z,855.00
2023-05-05T03:27:07.546Z,854.00
2023-05-05T03:28:07.553Z,853.00
2023-05-05T03:29:07.568Z,851.00
2023-05-05T03:30:08.082Z,852.00
2023-05-05T03:31:07.597Z,849.00
2023-05-05T03:32:07.770Z,850.00
2023-05-05T03:33:07.705Z,851.00
2023-05-05T03:34:07.658Z,849.00
2023-05-05T03:35:07.676Z,847.00
2023-05-05T03:36:07.690Z,845.00
2023-05-05T03:37:07.716Z,847.00
2023-05-05T03:38:07.737Z,846.00
2023-05-05T03:39:07.742Z,846.00
2023-05-05T03:40:08.026Z,847.00
2023-05-05T03:41:07.793Z,845.00
2023-05-05T03:42:07.799Z,843.00
2023-05-05T03:43:07.814Z,842.00
2023-05-05T03:44:07.847Z,843.00
2023-05-05T03:45:07.840Z,846.00
2023-05-05T03:46:07.871Z,846.00
2023-05-05T03:47:07.878Z,842.00
2023-05-05T03:48:07.900Z,839.00
2023-05-05T03:49:07.883Z,836.00
2023-05-05T03:50:08.109Z,835.00
2023-05-05T03:51:07.913Z,838.00
2023-05-05T03:52:07.929Z,840.00
2023-05-05T03:53:07.943Z,839.00
2023-05-05T03:54:07.969Z,845.00
2023-05-05T03:55:07.969Z,847.00
2023-05-05T03:56:07.976Z,846.00
2023-05-05T03:57:07.989Z,843.00
2023-05-05T03:58:08.000Z,843.00
2023-05-05T03:59:08.015Z,844.00
2023-05-05T04:00:08.149Z,840.00
2023-05-05T04:01:08.032Z,841.00
2023-05-05T04:02:08.094Z,842.00
2023-05-05T04:03:08.304Z,840.00
2023-05-05T04:04:08.102Z,840.00
2023-05-05T04:05:08.062Z,839.00
2023-05-05T04:06:08.103Z,843.00
2023-05-05T04:07:08.089Z,842.00
2023-05-05T04:08:08.143Z,842.00
2023-05-05T04:09:08.124Z,839.00
2023-05-05T04:10:08.453Z,842.00
2023-05-05T04:11:08.158Z,840.00
2023-05-05T04:12:08.163Z,838.00
2023-05-05T04:13:08.208Z,836.00
2023-05-05T04:14:08.194Z,835.00
2023-05-05T04:15:08.210Z,836.00
2023-05-05T04:16:08.260Z,832.00
2023-05-05T04:17:08.256Z,831.00
2023-05-05T04:18:08.350Z,829.00
2023-05-05T04:19:08.299Z,830.00
2023-05-05T04:20:08.538Z,829.00
2023-05-05T04:21:08.378Z,829.00
2023-05-05T04:22:08.381Z,828.00
2023-05-05T04:23:08.391Z,829.00
2023-05-05T04:24:08.417Z,829.00
2023-05-05T04:25:08.428Z,830.00
2023-05-05T04:26:08.438Z,835.00
2023-05-05T04:27:08.531Z,831.00
2023-05-05T04:28:08.446Z,827.00
2023-05-05T04:29:08.454Z,826.00
2023-05-05T04:30:08.632Z,825.00
2023-05-05T04:31:08.505Z,822.00
2023-05-05T04:32:08.483Z,821.00
2023-05-05T04:33:08.501Z,820.00
2023-05-05T04:34:08.498Z,818.00
2023-05-05T04:35:08.500Z,821.00
2023-05-05T04:36:08.502Z,822.00
2023-05-05T04:37:08.555Z,818.00
2023-05-05T04:38:08.545Z,818.00
2023-05-05T04:39:08.609Z,817.00
2023-05-05T04:40:08.755Z,818.00
2023-05-05T04:41:08.578Z,820.00
2023-05-05T04:42:08.588Z,826.00
2023-05-05T04:43:08.613Z,826.00
2023-05-05T04:44:08.627Z,827.00
2023-05-05T04:45:08.629Z,826.00
2023-05-05T04:46:08.691Z,823.00
2023-05-05T04:47:08.667Z,821.00
2023-05-05T04:48:08.727Z,820.00
2023-05-05T04:49:08.684Z,817.00
2023-05-05T04:50:08.927Z,817.00
2023-05-05T04:51:08.728Z,817.00
2023-05-05T04:52:08.706Z,819.00
2023-05-05T04:53:08.714Z,822.00
2023-05-05T04:54:08.741Z,820.00
2023-05-05T04:55:08.754Z,821.00
2023-05-05T04:56:08.767Z,822.00
2023-05-05T04:57:08.789Z,819.00
2023-05-05T04:58:08.789Z,818.00
2023-05-05T04:59:08.868Z,815.00
2023-05-05T05:00:09.089Z,814.00
2023-05-05T05:01:08.883Z,818.00
2023-05-05T05:02:08.943Z,816.00
2023-05-05T05:03:09.095Z,812.00
2023-05-05T05:04:08.994Z,810.00
2023-05-05T05:05:09.016Z,810.00
2023-05-05T05:06:09.022Z,811.00
2023-05-05T05:07:09.070Z,812.00
2023-05-05T05:08:09.038Z,813.00
2023-05-05T05:09:09.045Z,814.00
2023-05-05T05:10:09.321Z,813.00
2023-05-05T05:11:09.071Z,815.00
2023-05-05T05:12:09.081Z,817.00
2023-05-05T05:13:11.962Z,842.00
2023-05-05T05:14:09.101Z,844.00
2023-05-05T05:15:09.115Z,841.00
2023-05-05T05:16:09.150Z,872.00
2023-05-05T05:17:09.133Z,895.00
2023-05-05T05:18:09.146Z,899.00
2023-05-05T05:19:09.147Z,902.00
2023-05-05T05:20:10.593Z,909.00
2023-05-05T05:21:09.149Z,926.00
2023-05-05T05:22:09.273Z,930.00
2023-05-05T05:23:09.172Z,943.00
2023-05-05T05:24:09.171Z,965.00
2023-05-05T05:25:09.191Z,1000.00
2023-05-05T05:26:09.198Z,988.00
2023-05-05T05:27:10.097Z,985.00
2023-05-05T05:28:10.810Z,958.00
2023-05-05T05:29:09.225Z,947.00
2023-05-05T05:30:09.379Z,967.00
2023-05-05T05:31:09.245Z,957.00
2023-05-05T05:32:09.537Z,949.00
2023-05-05T05:33:09.318Z,895.00
2023-05-05T05:34:16.175Z,899.00
2023-05-05T05:35:09.364Z,896.00
2023-05-05T05:36:09.308Z,891.00
2023-05-05T05:37:10.250Z,887.00
2023-05-05T05:38:09.306Z,893.00
2023-05-05T05:39:09.323Z,906.00
2023-05-05T05:40:09.464Z,915.00
2023-05-05T05:41:09.327Z,920.00
2023-05-05T05:42:09.336Z,923.00
2023-05-05T05:43:12.176Z,926.00
2023-05-05T05:44:09.355Z,928.00
2023-05-05T05:45:09.347Z,925.00
2023-05-05T05:46:09.550Z,922.00
2023-05-05T05:47:09.386Z,916.00
2023-05-05T05:48:09.460Z,915.00
2023-05-05T05:49:10.157Z,912.00
2023-05-05T05:50:09.538Z,910.00
2023-05-05T05:51:09.389Z,904.00
2023-05-05T05:52:11.178Z,905.00
2023-05-05T05:53:09.401Z,906.00
2023-05-05T05:54:11.175Z,905.00
2023-05-05T05:55:11.174Z,912.00
2023-05-05T05:56:09.415Z,915.00
2023-05-05T05:57:09.424Z,914.00
2023-05-05T05:58:09.441Z,910.00
2023-05-05T05:59:09.440Z,906.00
2023-05-05T06:00:09.816Z,904.00
2023-05-05T06:01:09.442Z,906.00
2023-05-05T06:02:09.465Z,914.00
2023-05-05T06:03:09.668Z,924.00
2023-05-05T06:04:10.084Z,935.00
2023-05-05T06:05:09.455Z,941.00
2023-05-05T06:06:09.463Z,942.00
2023-05-05T06:07:09.461Z,945.00
2023-05-05T06:08:09.465Z,947.00
2023-05-05T06:09:09.476Z,943.00
2023-05-05T06:10:25.575Z,937.00
2023-05-05T06:11:10.474Z,932.00
2023-05-05T06:12:09.480Z,921.00
2023-05-05T06:13:09.671Z,917.00
2023-05-05T06:14:09.489Z,918.00
2023-05-05T06:15:09.494Z,919.00
2023-05-05T06:16:09.542Z,919.00
2023-05-05T06:17:09.508Z,935.00
2023-05-05T06:18:09.514Z,928.00
2023-05-05T06:19:09.519Z,921.00
2023-05-05T06:20:09.669Z,914.00
2023-05-05T06:21:09.528Z,905.00
2023-05-05T06:22:09.546Z,957.00
2023-05-05T06:23:09.566Z,941.00
2023-05-05T06:24:09.546Z,957.00
2023-05-05T06:25:09.542Z,969.00
2023-05-05T06:26:09.575Z,975.00
2023-05-05T06:27:09.560Z,978.00
2023-05-05T06:28:09.572Z,972.00
2023-05-05T06:29:11.705Z,973.00
2023-05-05T06:30:09.929Z,972.00
2023-05-05T06:31:09.637Z,976.00
2023-05-05T06:32:09.624Z,982.00
2023-05-05T06:33:09.734Z,983.00
2023-05-05T06:34:09.602Z,983.00
2023-05-05T06:35:09.634Z,982.00
2023-05-05T06:36:09.641Z,977.00
2023-05-05T06:37:10.690Z,975.00
2023-05-05T06:38:11.180Z,975.00
2023-05-05T06:39:11.773Z,975.00
2023-05-05T06:40:09.947Z,977.00
2023-05-05T06:41:09.861Z,980.00
2023-05-05T06:42:09.854Z,983.00
2023-05-05T06:43:09.873Z,981.00
2023-05-05T06:44:09.876Z,980.00
2023-05-05T06:45:09.891Z,977.00
2023-05-05T06:46:09.877Z,971.00
2023-05-05T06:47:09.902Z,967.00
2023-05-05T06:48:09.903Z,963.00
2023-05-05T06:49:09.912Z,962.00
2023-05-05T06:50:10.149Z,961.00
2023-05-05T06:51:09.914Z,959.00
2023-05-05T06:52:12.654Z,960.00
2023-05-05T06:53:09.925Z,958.00
2023-05-05T06:54:09.946Z,960.00
2023-05-05T06:55:10.172Z,962.00
2023-05-05T06:56:09.951Z,961.00
2023-05-05T06:57:09.994Z,958.00
2023-05-05T06:58:09.950Z,952.00
2023-05-05T06:59:09.957Z,948.00
2023-05-05T07:00:10.110Z,948.00
2023-05-05T07:01:09.980Z,946.00
2023-05-05T07:02:09.998Z,948.00
2023-05-05T07:03:10.026Z,950.00
2023-05-05T07:04:10.039Z,950.00
2023-05-05T07:05:11.692Z,950.00
2023-05-05T07:06:09.979Z,950.00
2023-05-05T07:07:10.020Z,951.00
2023-05-05T07:08:09.974Z,950.00
2023-05-05T07:09:09.986Z,950.00
2023-05-05T07:10:10.157Z,950.00
2023-05-05T07:11:10.182Z,948.00
2023-05-05T07:12:09.999Z,950.00
2023-05-05T07:13:10.032Z,950.00
2023-05-05T07:14:10.660Z,946.00
2023-05-05T07:15:23.331Z,943.00
2023-05-05T07:16:11.140Z,945.00
2023-05-05T07:17:11.037Z,947.00
2023-05-05T07:18:10.085Z,953.00
2023-05-05T07:19:10.075Z,1044.00
2023-05-05T07:20:10.232Z,1043.00
2023-05-05T07:21:11.683Z,1076.00
2023-05-05T07:22:10.081Z,1098.00
2023-05-05T07:23:10.656Z,1129.00
2023-05-05T07:24:10.084Z,1133.00
2023-05-05T07:25:10.077Z,1131.00
2023-05-05T07:26:10.090Z,1128.00
2023-05-05T07:27:10.242Z,1128.00
2023-05-05T07:28:10.652Z,1123.00
2023-05-05T07:29:10.689Z,1115.00
2023-05-05T07:30:14.033Z,1106.00
2023-05-05T07:31:11.082Z,1096.00
2023-05-05T07:32:10.138Z,1098.00
2023-05-05T07:33:10.152Z,1099.00
2023-05-05T07:34:10.169Z,1105.00
2023-05-05T07:35:10.116Z,1100.00
2023-05-05T07:36:10.105Z,1072.00
2023-05-05T07:37:10.110Z,1007.00
2023-05-05T07:38:10.924Z,1003.00
2023-05-05T07:39:10.123Z,998.00
2023-05-05T07:40:10.410Z,991.00
2023-05-05T07:41:10.125Z,989.00
2023-05-05T07:42:10.130Z,985.00
2023-05-05T07:43:12.217Z,981.00
2023-05-05T07:44:10.252Z,984.00
2023-05-05T07:45:10.276Z,982.00
2023-05-05T07:46:11.151Z,981.00
2023-05-05T07:47:10.291Z,976.00
2023-05-05T07:48:10.324Z,977.00
2023-05-05T07:49:10.338Z,980.00
2023-05-05T07:50:10.657Z,979.00
2023-05-05T07:51:10.351Z,973.00
2023-05-05T07:52:11.093Z,972.00
2023-05-05T07:53:14.889Z,970.00
2023-05-05T07:54:10.662Z,968.00
2023-05-05T07:55:10.409Z,966.00
2023-05-05T07:56:10.420Z,960.00
2023-05-05T07:57:10.400Z,962.00
2023-05-05T07:58:10.462Z,965.00
2023-05-05T07:59:11.118Z,970.00
2023-05-05T08:00:10.638Z,972.00
2023-05-05T08:01:10.422Z,969.00
2023-05-05T08:02:11.171Z,973.00
2023-05-05T08:03:12.014Z,971.00
2023-05-05T08:04:11.527Z,971.00
2023-05-05T08:05:11.690Z,971.00
2023-05-05T08:06:12.189Z,972.00
2023-05-05T08:07:10.462Z,974.00
2023-05-05T08:08:10.473Z,970.00
2023-05-05T08:09:12.181Z,970.00
2023-05-05T08:10:10.499Z,974.00
2023-05-05T08:11:10.510Z,978.00
2023-05-05T08:12:11.152Z,981.00
2023-05-05T08:13:10.608Z,977.00
2023-05-05T08:14:10.554Z,977.00
2023-05-05T08:15:10.914Z,983.00
2023-05-05T08:16:10.570Z,1088.00
2023-05-05T08:17:11.205Z,1127.00
2023-05-05T08:18:10.568Z,1136.00
2023-05-05T08:19:25.015Z,1142.00
2023-05-05T08:20:11.559Z,1140.00
2023-05-05T08:21:10.574Z,1155.00
2023-05-05T08:22:10.576Z,1177.00
2023-05-05T08:23:10.591Z,1155.00
2023-05-05T08:24:10.611Z,1121.00
2023-05-05T08:25:10.591Z,1085.00
2023-05-05T08:26:10.637Z,1081.00
2023-05-05T08:27:10.611Z,1081.00
2023-05-05T08:28:10.593Z,1077.00
2023-05-05T08:29:10.608Z,1070.00
2023-05-05T08:30:10.669Z,1073.00
2023-05-05T08:31:10.832Z,1116.00
2023-05-05T08:32:10.806Z,1035.00
2023-05-05T08:33:11.027Z,1021.00
2023-05-05T08:34:10.936Z,1023.00
2023-05-05T08:35:11.140Z,1021.00
2023-05-05T08:36:11.073Z,1032.00
2023-05-05T08:37:11.154Z,1054.00
2023-05-05T08:38:11.146Z,1029.00
2023-05-05T08:39:11.141Z,1010.00
2023-05-05T08:40:11.148Z,1016.00
2023-05-05T08:41:11.164Z,1026.00
2023-05-05T08:42:11.192Z,1035.00
2023-05-05T08:43:11.199Z,1041.00
2023-05-05T08:44:11.201Z,1045.00
2023-05-05T08:45:11.611Z,1048.00
2023-05-05T08:46:11.208Z,1058.00
2023-05-05T08:47:11.465Z,1059.00
2023-05-05T08:48:11.269Z,1063.00
2023-05-05T08:49:11.229Z,1065.00
2023-05-05T08:50:11.254Z,1065.00
2023-05-05T08:51:11.274Z,1068.00
2023-05-05T08:52:11.309Z,1070.00
2023-05-05T08:53:11.281Z,1072.00
2023-05-05T08:54:11.298Z,1070.00
2023-05-05T08:55:11.316Z,1070.00
2023-05-05T08:56:11.329Z,1068.00
2023-05-05T08:57:11.324Z,1069.00
2023-05-05T08:58:11.328Z,1069.00
2023-05-05T08:59:11.346Z,1068.00
2023-05-05T09:00:11.343Z,1071.00
2023-05-05T09:01:11.425Z,1074.00
2023-05-05T09:02:11.407Z,1075.00
2023-05-05T09:03:11.631Z,1078.00
2023-05-05T09:04:11.400Z,1077.00
2023-05-05T09:05:11.401Z,1076.00
2023-05-05T09:06:11.421Z,1078.00
2023-05-05T09:07:11.434Z,1075.00
2023-05-05T09:08:11.476Z,1072.00
2023-05-05T09:09:11.438Z,1071.00
2023-05-05T09:10:11.444Z,1070.00
2023-05-05T09:11:11.491Z,1068.00
2023-05-05T09:12:11.456Z,1071.00
2023-05-05T09:13:11.497Z,1071.00
2023-05-05T09:14:11.471Z,1081.00
2023-05-05T09:15:11.649Z,1086.00
2023-05-05T09:16:11.576Z,1147.00
2023-05-05T09:17:11.563Z,1162.00
2023-05-05T09:18:11.636Z,1160.00
2023-05-05T09:19:11.844Z,1210.00
2023-05-05T09:20:11.686Z,1207.00
2023-05-05T09:21:11.681Z,1176.00
2023-05-05T09:22:11.706Z,1156.00
2023-05-05T09:23:12.184Z,1143.00
2023-05-05T09:24:11.751Z,1141.00
2023-05-05T09:25:12.810Z,1134.00
2023-05-05T09:26:11.751Z,1126.00
2023-05-05T09:27:11.737Z,1097.00
2023-05-05T09:28:12.580Z,1085.00
2023-05-05T09:29:12.330Z,1081.00
2023-05-05T09:30:12.722Z,1069.00
2023-05-05T09:31:11.979Z,1062.00
2023-05-05T09:32:11.805Z,1058.00
2023-05-05T09:33:12.446Z,1058.00
2023-05-05T09:34:11.873Z,1061.00
2023-05-05T09:35:11.918Z,1061.00
2023-05-05T09:36:11.786Z,1063.00
2023-05-05T09:37:11.800Z,1068.00
2023-05-05T09:38:11.816Z,1068.00
2023-05-05T09:39:11.810Z,1072.00
2023-05-05T09:40:11.796Z,1078.00
2023-05-05T09:41:11.823Z,1083.00
2023-05-05T09:42:12.812Z,1081.00
2023-05-05T09:43:11.809Z,1083.00
2023-05-05T09:44:11.815Z,1080.00
2023-05-05T09:45:12.675Z,1079.00
2023-05-05T09:46:12.676Z,1083.00
2023-05-05T09:47:25.927Z,1089.00
2023-05-05T09:48:12.613Z,1088.00
2023-05-05T09:49:11.814Z,1094.00
2023-05-05T09:50:11.809Z,1099.00
2023-05-05T09:51:12.729Z,1102.00
2023-05-05T09:52:11.809Z,1104.00
2023-05-05T09:53:13.619Z,1106.00
2023-05-05T09:54:11.806Z,1106.00
2023-05-05T09:55:11.813Z,1110.00
2023-05-05T09:56:11.803Z,1108.00
2023-05-05T09:57:14.686Z,1106.00
2023-05-05T09:58:12.704Z,1110.00
2023-05-05T09:59:11.859Z,1109.00
2023-05-05T10:00:12.137Z,1109.00
2023-05-05T10:01:11.844Z,1106.00
2023-05-05T10:02:12.881Z,1111.00
2023-05-05T10:03:12.668Z,1115.00
2023-05-05T10:04:11.870Z,1117.00
2023-05-05T10:05:11.850Z,1121.00
2023-05-05T10:06:11.789Z,1120.00
2023-05-05T10:07:11.916Z,1122.00
2023-05-05T10:08:11.794Z,1118.00
2023-05-05T10:09:14.689Z,1115.00
2023-05-05T10:10:11.998Z,1114.00
2023-05-05T10:11:11.777Z,1120.00
2023-05-05T10:12:11.774Z,1120.00
2023-05-05T10:13:12.002Z,1126.00
2023-05-05T10:14:11.778Z,1131.00
2023-05-05T10:15:11.813Z,1137.00
2023-05-05T10:16:11.807Z,1151.00
2023-05-05T10:17:11.797Z,1140.00
2023-05-05T10:18:11.811Z,1128.00
2023-05-05T10:19:11.792Z,1125.00
2023-05-05T10:20:11.793Z,1124.00
2023-05-05T10:21:11.794Z,1122.00
2023-05-05T10:22:11.801Z,1124.00
2023-05-05T10:23:11.874Z,1124.00
2023-05-05T10:24:11.806Z,1128.00
2023-05-05T10:25:11.819Z,1128.00
2023-05-05T10:26:11.815Z,1126.00
2023-05-05T10:27:12.673Z,1129.00
2023-05-05T10:28:11.836Z,1133.00
2023-05-05T10:29:11.827Z,1131.00
2023-05-05T10:30:11.822Z,1134.00
2023-05-05T10:31:24.556Z,1141.00
2023-05-05T10:32:40.648Z,1146.00
2023-05-05T10:33:30.366Z,1152.00
2023-05-05T10:34:12.980Z,1156.00
2023-05-05T10:35:11.836Z,1159.00
2023-05-05T10:36:11.835Z,1162.00
2023-05-05T10:37:11.835Z,1166.00
2023-05-05T10:38:11.833Z,1171.00
2023-05-05T10:39:11.863Z,1175.00
2023-05-05T10:40:11.835Z,1180.00
2023-05-05T10:41:11.838Z,1185.00
2023-05-05T10:42:11.846Z,1188.00
2023-05-05T10:43:11.855Z,1190.00
2023-05-05T10:44:11.858Z,1190.00
2023-05-05T10:45:11.875Z,1191.00
2023-05-05T10:46:11.916Z,1193.00
2023-05-05T10:47:11.860Z,1194.00
2023-05-05T10:48:11.927Z,1195.00
2023-05-05T10:49:13.182Z,1196.00
2023-05-05T10:50:11.892Z,1198.00
2023-05-05T10:51:11.884Z,1199.00
2023-05-05T10:52:11.904Z,1204.00
2023-05-05T10:53:12.907Z,1205.00
2023-05-05T10:54:11.923Z,1206.00
2023-05-05T10:55:12.008Z,1204.00
2023-05-05T10:56:11.919Z,1205.00
2023-05-05T10:57:11.917Z,1206.00
2023-05-05T10:58:11.926Z,1210.00
2023-05-05T10:59:11.919Z,1214.00
2023-05-05T11:00:13.438Z,1213.00
2023-05-05T11:01:11.938Z,1214.00
2023-05-05T11:02:11.922Z,1221.00
2023-05-05T11:03:12.013Z,1246.00
2023-05-05T11:04:11.940Z,1255.00
2023-05-05T11:05:11.925Z,1263.00
2023-05-05T11:06:11.931Z,1273.00
2023-05-05T11:07:14.588Z,1256.00
2023-05-05T11:08:11.933Z,1235.00
2023-05-05T11:09:11.977Z,1230.00
2023-05-05T11:10:12.116Z,1230.00
2023-05-05T11:11:12.076Z,1235.00
2023-05-05T11:12:11.960Z,1241.00
2023-05-05T11:13:11.958Z,1245.00
2023-05-05T11:14:11.916Z,1245.00
2023-05-05T11:15:11.918Z,1247.00
2023-05-05T11:16:11.977Z,1245.00
2023-05-05T11:17:11.911Z,1246.00
2023-05-05T11:18:11.914Z,1246.00
2023-05-05T11:19:11.912Z,1238.00
2023-05-05T11:20:11.923Z,1236.00
2023-05-05T11:21:11.914Z,1223.00
2023-05-05T11:22:11.925Z,1211.00
2023-05-05T11:23:13.361Z,1207.00
2023-05-05T11:24:12.148Z,1218.00
2023-05-05T11:25:12.205Z,1254.00
2023-05-05T11:26:12.276Z,1265.00
2023-05-05T11:27:12.382Z,1257.00
2023-05-05T11:28:12.380Z,1259.00
2023-05-05T11:29:12.383Z,1259.00
2023-05-05T11:30:12.537Z,1261.00
2023-05-05T11:31:12.408Z,1229.00
2023-05-05T11:32:12.407Z,1238.00
2023-05-05T11:33:12.415Z,1242.00
2023-05-05T11:34:12.424Z,1239.00
2023-05-05T11:35:12.427Z,1237.00
2023-05-05T11:36:12.471Z,1238.00
2023-05-05T11:37:12.464Z,1235.00
2023-05-05T11:38:12.504Z,1231.00
2023-05-05T11:39:12.526Z,1228.00
2023-05-05T11:40:12.578Z,1225.00
2023-05-05T11:41:12.586Z,1217.00
2023-05-05T11:42:12.638Z,1211.00
2023-05-05T11:43:12.674Z,1212.00
2023-05-05T11:44:12.671Z,1213.00
2023-05-05T11:45:12.681Z,1205.00
2023-05-05T11:46:12.756Z,1204.00
2023-05-05T11:47:12.701Z,1199.00
2023-05-05T11:48:12.776Z,1209.00
2023-05-05T11:49:12.722Z,1215.00
2023-05-05T11:50:12.821Z,1220.00
2023-05-05T11:51:12.788Z,1219.00
2023-05-05T11:52:12.788Z,1223.00
2023-05-05T11:53:12.812Z,1219.00
2023-05-05T11:54:12.802Z,1216.00
2023-05-05T11:55:12.829Z,1243.00
2023-05-05T11:56:12.826Z,1232.00
2023-05-05T11:57:12.834Z,1195.00
2023-05-05T11:58:12.833Z,1214.00
2023-05-05T11:59:12.899Z,1214.00
2023-05-05T12:00:12.905Z,1207.00
2023-05-05T12:01:12.847Z,1199.00
2023-05-05T12:02:12.848Z,1198.00
2023-05-05T12:03:12.958Z,1190.00
2023-05-05T12:04:13.075Z,1167.00
2023-05-05T12:05:12.881Z,1152.00
2023-05-05T12:06:12.892Z,1149.00
2023-05-05T12:07:12.924Z,1141.00
2023-05-05T12:08:12.930Z,1122.00
2023-05-05T12:09:12.937Z,1100.00
2023-05-05T12:10:12.962Z,1094.00
2023-05-05T12:11:12.968Z,1095.00
2023-05-05T12:12:12.982Z,1085.00
2023-05-05T12:13:13.006Z,1108.00
2023-05-05T12:14:13.040Z,1145.00
2023-05-05T12:15:13.074Z,1079.00
2023-05-05T12:16:13.205Z,1147.00
2023-05-05T12:17:13.143Z,1195.00
2023-05-05T12:18:13.214Z,1202.00
2023-05-05T12:19:13.152Z,1199.00
2023-05-05T12:20:13.417Z,1200.00